sensor_id;sensor_type;location;lat;lon;timestamp;pressure;altitude;pressure_sealevel;temperature;humidity
70841;BME280;58465;51.534;9.934;2022-07-18T00:01:48;100851.66;;;16.24;48.41
70841;BME280;58465;51.534;9.934;2022-07-18T00:04:13;100847.31;;;16.18;48.49
70841;BME280;58465;51.534;9.934;2022-07-18T00:06:38;100843.03;;;16.13;48.59
70841;BME280;58465;51.534;9.934;2022-07-18T00:09:04;100846.66;;;16.12;49.02
70841;BME280;58465;51.534;9.934;2022-07-18T00:11:29;100855.66;;;16.11;49.30
70841;BME280;58465;51.534;9.934;2022-07-18T00:13:55;100855.69;;;16.09;49.16
70841;BME280;58465;51.534;9.934;2022-07-18T00:16:20;100860.41;;;16.03;48.90
70841;BME280;58465;51.534;9.934;2022-07-18T00:18:46;100864.34;;;15.92;49.37
70841;BME280;58465;51.534;9.934;2022-07-18T00:21:11;100862.56;;;15.91;49.30
70841;BME280;58465;51.534;9.934;2022-07-18T00:23:37;100867.16;;;15.88;49.57
70841;BME280;58465;51.534;9.934;2022-07-18T00:26:02;100869.16;;;15.81;49.73
70841;BME280;58465;51.534;9.934;2022-07-18T00:28:28;100875.69;;;15.74;49.72
70841;BME280;58465;51.534;9.934;2022-07-18T00:30:53;100875.81;;;15.70;50.12
70841;BME280;58465;51.534;9.934;2022-07-18T00:33:18;100876.78;;;15.67;49.89
70841;BME280;58465;51.534;9.934;2022-07-18T00:35:43;100875.88;;;15.67;50.12
70841;BME280;58465;51.534;9.934;2022-07-18T00:38:09;100870.66;;;15.62;50.21
70841;BME280;58465;51.534;9.934;2022-07-18T00:40:34;100880.53;;;15.62;50.46
70841;BME280;58465;51.534;9.934;2022-07-18T00:42:59;100876.94;;;15.63;50.40
70841;BME280;58465;51.534;9.934;2022-07-18T00:45:25;100862.66;;;15.59;50.52
70841;BME280;58465;51.534;9.934;2022-07-18T00:47:50;100863.59;;;15.58;50.80
70841;BME280;58465;51.534;9.934;2022-07-18T00:50:20;100856.47;;;15.57;51.01
70841;BME280;58465;51.534;9.934;2022-07-18T00:52:46;100859.25;;;15.54;51.10
70841;BME280;58465;51.534;9.934;2022-07-18T00:55:12;100853.94;;;15.49;51.34
70841;BME280;58465;51.534;9.934;2022-07-18T00:57:39;100857.50;;;15.50;51.26
70841;BME280;58465;51.534;9.934;2022-07-18T01:00:06;100860.25;;;15.48;51.33
70841;BME280;58465;51.534;9.934;2022-07-18T01:02:50;100862.94;;;15.48;51.39
70841;BME280;58465;51.534;9.934;2022-07-18T01:05:16;100856.75;;;15.46;51.32
70841;BME280;58465;51.534;9.934;2022-07-18T01:07:41;100855.09;;;15.41;51.18
70841;BME280;58465;51.534;9.934;2022-07-18T01:10:07;100861.38;;;15.41;51.45
70841;BME280;58465;51.534;9.934;2022-07-18T01:12:32;100857.09;;;15.34;51.44
70841;BME280;58465;51.534;9.934;2022-07-18T01:14:58;100858.06;;;15.32;51.71
70841;BME280;58465;51.534;9.934;2022-07-18T01:17:23;100858.22;;;15.27;51.71
70841;BME280;58465;51.534;9.934;2022-07-18T01:19:49;100853.88;;;15.21;52.10
70841;BME280;58465;51.534;9.934;2022-07-18T01:22:17;100845.97;;;15.15;52.31
70841;BME280;58465;51.534;9.934;2022-07-18T01:24:43;100843.53;;;15.08;52.72
70841;BME280;58465;51.534;9.934;2022-07-18T01:27:12;100843.53;;;15.08;53.12
70841;BME280;58465;51.534;9.934;2022-07-18T01:29:37;100844.59;;;15.01;53.32
70841;BME280;58465;51.534;9.934;2022-07-18T01:32:04;100836.66;;;14.96;53.68
70841;BME280;58465;51.534;9.934;2022-07-18T01:34:30;100845.78;;;14.91;54.39
70841;BME280;58465;51.534;9.934;2022-07-18T01:36:55;100844.09;;;14.87;54.62
70841;BME280;58465;51.534;9.934;2022-07-18T01:39:21;100842.38;;;14.84;54.49
70841;BME280;58465;51.534;9.934;2022-07-18T01:41:54;100838.06;;;14.78;54.47
70841;BME280;58465;51.534;9.934;2022-07-18T01:44:20;100830.09;;;14.74;54.66
70841;BME280;58465;51.534;9.934;2022-07-18T01:46:45;100837.38;;;14.70;54.83
70841;BME280;58465;51.534;9.934;2022-07-18T01:49:10;100840.94;;;14.71;54.62
70841;BME280;58465;51.534;9.934;2022-07-18T01:51:35;100841.09;;;14.65;54.52
70841;BME280;58465;51.534;9.934;2022-07-18T01:54:01;100843.97;;;14.59;54.59
70841;BME280;58465;51.534;9.934;2022-07-18T01:56:27;100840.47;;;14.55;54.77
70841;BME280;58465;51.534;9.934;2022-07-18T01:58:52;100848.59;;;14.52;54.79
70841;BME280;58465;51.534;9.934;2022-07-18T02:01:17;100840.63;;;14.49;54.64
70841;BME280;58465;51.534;9.934;2022-07-18T02:03:42;100845.16;;;14.47;55.03
70841;BME280;58465;51.534;9.934;2022-07-18T02:06:08;100843.44;;;14.44;55.01
70841;BME280;58465;51.534;9.934;2022-07-18T02:08:33;100840.75;;;14.44;55.10
70841;BME280;58465;51.534;9.934;2022-07-18T02:10:58;100838.09;;;14.43;54.89
70841;BME280;58465;51.534;9.934;2022-07-18T02:13:24;100838.25;;;14.35;54.95
70841;BME280;58465;51.534;9.934;2022-07-18T02:15:49;100827.63;;;14.31;55.15
70841;BME280;58465;51.534;9.934;2022-07-18T02:18:15;100840.97;;;14.34;54.84
70841;BME280;58465;51.534;9.934;2022-07-18T02:20:40;100834.81;;;14.30;55.06
70841;BME280;58465;51.534;9.934;2022-07-18T02:23:06;100834.78;;;14.32;54.90
70841;BME280;58465;51.534;9.934;2022-07-18T02:25:33;100831.25;;;14.30;54.97
70841;BME280;58465;51.534;9.934;2022-07-18T02:27:59;100831.38;;;14.24;55.16
70841;BME280;58465;51.534;9.934;2022-07-18T02:30:24;100837.63;;;14.24;55.24
70841;BME280;58465;51.534;9.934;2022-07-18T02:32:49;100828.81;;;14.19;55.34
70841;BME280;58465;51.534;9.934;2022-07-18T02:35:15;100829.94;;;14.10;55.52
70841;BME280;58465;51.534;9.934;2022-07-18T02:37:40;100829.19;;;14.04;55.76
70841;BME280;58465;51.534;9.934;2022-07-18T02:40:08;100833.81;;;13.97;56.26
70841;BME280;58465;51.534;9.934;2022-07-18T02:42:34;100837.56;;;13.92;56.05
70841;BME280;58465;51.534;9.934;2022-07-18T02:44:59;100827.84;;;13.85;56.49
70841;BME280;58465;51.534;9.934;2022-07-18T02:47:24;100827.91;;;13.83;56.48
70841;BME280;58465;51.534;9.934;2022-07-18T02:49:50;100841.34;;;13.83;56.50
70841;BME280;58465;51.534;9.934;2022-07-18T02:52:15;100847.59;;;13.84;56.67
70841;BME280;58465;51.534;9.934;2022-07-18T02:54:40;100845.81;;;13.83;56.75
70841;BME280;58465;51.534;9.934;2022-07-18T02:57:06;100838.72;;;13.80;56.94
70841;BME280;58465;51.534;9.934;2022-07-18T02:59:32;100848.66;;;13.75;56.65
70841;BME280;58465;51.534;9.934;2022-07-18T03:01:57;100851.34;;;13.75;56.80
70841;BME280;58465;51.534;9.934;2022-07-18T03:04:23;100846.94;;;13.72;56.97
70841;BME280;58465;51.534;9.934;2022-07-18T03:06:49;100845.25;;;13.68;57.25
70841;BME280;58465;51.534;9.934;2022-07-18T03:09:15;100847.94;;;13.67;57.22
70841;BME280;58465;51.534;9.934;2022-07-18T03:11:40;100851.50;;;13.69;57.00
70841;BME280;58465;51.534;9.934;2022-07-18T03:14:05;100843.50;;;13.66;57.07
70841;BME280;58465;51.534;9.934;2022-07-18T03:16:31;100839.88;;;13.68;57.08
70841;BME280;58465;51.534;9.934;2022-07-18T03:18:56;100843.44;;;13.69;57.01
70841;BME280;58465;51.534;9.934;2022-07-18T03:21:21;100845.22;;;13.70;56.83
70841;BME280;58465;51.534;9.934;2022-07-18T03:23:47;100839.69;;;13.76;56.86
70841;BME280;58465;51.534;9.934;2022-07-18T03:26:12;100826.44;;;13.68;56.96
70841;BME280;58465;51.534;9.934;2022-07-18T03:28:37;100835.53;;;13.63;56.94
70841;BME280;58465;51.534;9.934;2022-07-18T03:31:03;100834.75;;;13.56;57.24
70841;BME280;58465;51.534;9.934;2022-07-18T03:33:29;100834.91;;;13.50;57.47
70841;BME280;58465;51.534;9.934;2022-07-18T03:35:54;100837.69;;;13.46;57.69
70841;BME280;58465;51.534;9.934;2022-07-18T03:38:20;100844.72;;;13.53;57.38
70841;BME280;58465;51.534;9.934;2022-07-18T03:40:45;100833.94;;;13.54;57.27
70841;BME280;58465;51.534;9.934;2022-07-18T03:43:10;100831.34;;;13.50;57.73
70841;BME280;58465;51.534;9.934;2022-07-18T03:45:36;100828.63;;;13.51;57.64
70841;BME280;58465;51.534;9.934;2022-07-18T03:48:01;100825.09;;;13.49;57.42
70841;BME280;58465;51.534;9.934;2022-07-18T03:50:26;100829.56;;;13.49;57.54
70841;BME280;58465;51.534;9.934;2022-07-18T03:52:52;100841.16;;;13.51;57.79
70841;BME280;58465;51.534;9.934;2022-07-18T03:55:18;100838.47;;;13.51;57.51
70841;BME280;58465;51.534;9.934;2022-07-18T03:57:43;100841.22;;;13.48;57.72
70841;BME280;58465;51.534;9.934;2022-07-18T04:00:08;100840.34;;;13.47;57.56
70841;BME280;58465;51.534;9.934;2022-07-18T04:02:44;100849.28;;;13.48;57.94
70841;BME280;58465;51.534;9.934;2022-07-18T04:05:10;100835.97;;;13.43;58.27
70841;BME280;58465;51.534;9.934;2022-07-18T04:07:36;100838.72;;;13.40;58.05
70841;BME280;58465;51.534;9.934;2022-07-18T04:10:03;100842.25;;;13.42;58.13
70841;BME280;58465;51.534;9.934;2022-07-18T04:12:29;100838.56;;;13.46;58.11
70841;BME280;58465;51.534;9.934;2022-07-18T04:14:54;100836.66;;;13.53;57.75
70841;BME280;58465;51.534;9.934;2022-07-18T04:17:19;100838.38;;;13.55;57.70
70841;BME280;58465;51.534;9.934;2022-07-18T04:19:45;100839.41;;;13.50;57.98
70841;BME280;58465;51.534;9.934;2022-07-18T04:22:10;100829.84;;;13.36;58.20
70841;BME280;58465;51.534;9.934;2022-07-18T04:24:35;100831.53;;;13.42;58.30
70841;BME280;58465;51.534;9.934;2022-07-18T04:27:00;100824.38;;;13.41;58.40
70841;BME280;58465;51.534;9.934;2022-07-18T04:29:26;100828.91;;;13.39;58.39
70841;BME280;58465;51.534;9.934;2022-07-18T04:31:51;100837.84;;;13.38;58.36
70841;BME280;58465;51.534;9.934;2022-07-18T04:34:16;100835.06;;;13.44;57.94
70841;BME280;58465;51.534;9.934;2022-07-18T04:36:42;100826.91;;;13.47;57.90
70841;BME280;58465;51.534;9.934;2022-07-18T04:39:07;100828.44;;;13.60;57.70
70841;BME280;58465;51.534;9.934;2022-07-18T04:41:32;100831.81;;;13.68;57.32
70841;BME280;58465;51.534;9.934;2022-07-18T04:43:58;100844.28;;;13.72;57.24
70841;BME280;58465;51.534;9.934;2022-07-18T04:46:23;100835.31;;;13.73;57.05
70841;BME280;58465;51.534;9.934;2022-07-18T04:48:48;100841.34;;;13.83;57.04
70841;BME280;58465;51.534;9.934;2022-07-18T04:51:14;100842.03;;;13.91;56.53
70841;BME280;58465;51.534;9.934;2022-07-18T04:53:39;100830.25;;;13.97;56.34
70841;BME280;58465;51.534;9.934;2022-07-18T04:56:04;100821.97;;;14.06;55.86
70841;BME280;58465;51.534;9.934;2022-07-18T04:58:30;100806.78;;;14.05;56.11
70841;BME280;58465;51.534;9.934;2022-07-18T05:00:55;100813.06;;;14.04;55.77
70841;BME280;58465;51.534;9.934;2022-07-18T05:03:21;100819.69;;;13.89;56.73
70841;BME280;58465;51.534;9.934;2022-07-18T05:05:46;100813.63;;;13.81;56.51
70841;BME280;58465;51.534;9.934;2022-07-18T05:08:11;100805.56;;;13.81;56.89
70841;BME280;58465;51.534;9.934;2022-07-18T05:10:39;100812.50;;;13.91;56.72
70841;BME280;58465;51.534;9.934;2022-07-18T05:13:04;100811.34;;;14.01;56.45
70841;BME280;58465;51.534;9.934;2022-07-18T05:15:29;100816.34;;;14.17;56.03
70841;BME280;58465;51.534;9.934;2022-07-18T05:17:55;100808.03;;;14.26;55.84
70841;BME280;58465;51.534;9.934;2022-07-18T05:20:22;100813.13;;;14.39;55.69
70841;BME280;58465;51.534;9.934;2022-07-18T05:22:48;100808.28;;;14.52;55.21
70841;BME280;58465;51.534;9.934;2022-07-18T05:25:13;100798.97;;;14.65;54.67
70841;BME280;58465;51.534;9.934;2022-07-18T05:27:40;100797.78;;;14.75;54.74
70841;BME280;58465;51.534;9.934;2022-07-18T05:30:08;100796.63;;;14.85;54.08
70841;BME280;58465;51.534;9.934;2022-07-18T05:32:35;100791.34;;;14.81;54.13
70841;BME280;58465;51.534;9.934;2022-07-18T05:35:01;100791.47;;;14.78;54.13
70841;BME280;58465;51.534;9.934;2022-07-18T05:37:26;100795.81;;;14.82;53.87
70841;BME280;58465;51.534;9.934;2022-07-18T05:39:52;100794.59;;;14.94;53.74
70841;BME280;58465;51.534;9.934;2022-07-18T05:42:18;100809.47;;;15.07;53.25
70841;BME280;58465;51.534;9.934;2022-07-18T05:44:43;100809.09;;;15.19;53.14
70841;BME280;58465;51.534;9.934;2022-07-18T05:47:09;100806.75;;;15.38;52.67
70841;BME280;58465;51.534;9.934;2022-07-18T05:49:34;100801.66;;;15.58;51.99
70841;BME280;58465;51.534;9.934;2022-07-18T05:52:00;100801.06;;;15.76;51.25
70841;BME280;58465;51.534;9.934;2022-07-18T05:54:25;100814.66;;;16.01;50.52
70841;BME280;58465;51.534;9.934;2022-07-18T05:56:51;100812.38;;;16.15;50.41
70841;BME280;58465;51.534;9.934;2022-07-18T05:59:18;100811.66;;;16.37;50.15
70841;BME280;58465;51.534;9.934;2022-07-18T06:01:44;100811.06;;;16.53;49.36
70841;BME280;58465;51.534;9.934;2022-07-18T06:04:09;100808.78;;;16.69;48.87
70841;BME280;58465;51.534;9.934;2022-07-18T06:06:35;100814.44;;;16.86;48.40
70841;BME280;58465;51.534;9.934;2022-07-18T06:09:01;100809.78;;;16.91;48.33
70841;BME280;58465;51.534;9.934;2022-07-18T06:11:26;100808.25;;;17.08;48.11
70841;BME280;58465;51.534;9.934;2022-07-18T06:13:51;100810.13;;;17.05;47.78
70841;BME280;58465;51.534;9.934;2022-07-18T06:16:17;100806.50;;;17.06;47.54
70841;BME280;58465;51.534;9.934;2022-07-18T06:18:42;100796.56;;;17.07;47.40
70841;BME280;58465;51.534;9.934;2022-07-18T06:21:07;100796.56;;;17.07;47.24
70841;BME280;58465;51.534;9.934;2022-07-18T06:23:33;100792.34;;;17.23;46.95
70841;BME280;58465;51.534;9.934;2022-07-18T06:26:00;100789.13;;;17.37;46.79
70841;BME280;58465;51.534;9.934;2022-07-18T06:28:26;100790.41;;;17.50;46.33
70841;BME280;58465;51.534;9.934;2022-07-18T06:30:53;100788.22;;;17.60;46.15
70841;BME280;58465;51.534;9.934;2022-07-18T06:33:18;100786.91;;;17.71;45.85
70841;BME280;58465;51.534;9.934;2022-07-18T06:35:44;100792.38;;;17.92;45.79
70841;BME280;58465;51.534;9.934;2022-07-18T06:38:09;100779.28;;;18.25;44.76
70841;BME280;58465;51.534;9.934;2022-07-18T06:40:34;100784.34;;;18.74;43.89
70841;BME280;58465;51.534;9.934;2022-07-18T06:43:00;100787.69;;;19.59;41.85
70841;BME280;58465;51.534;9.934;2022-07-18T06:45:25;100779.91;;;19.89;41.44
70841;BME280;58465;51.534;9.934;2022-07-18T06:47:50;100774.41;;;19.72;41.46
70841;BME280;58465;51.534;9.934;2022-07-18T06:50:16;100772.09;;;19.44;42.20
70841;BME280;58465;51.534;9.934;2022-07-18T06:52:43;100773.22;;;19.40;42.47
70841;BME280;58465;51.534;9.934;2022-07-18T06:55:09;100782.00;;;19.45;42.54
70841;BME280;58465;51.534;9.934;2022-07-18T06:57:36;100773.97;;;19.62;42.29
70841;BME280;58465;51.534;9.934;2022-07-18T07:00:03;100766.63;;;19.83;42.00
70841;BME280;58465;51.534;9.934;2022-07-18T07:02:29;100759.69;;;20.13;41.23
70841;BME280;58465;51.534;9.934;2022-07-18T07:04:54;100763.72;;;20.41;40.81
70841;BME280;58465;51.534;9.934;2022-07-18T07:07:19;100762.75;;;20.59;40.42
70841;BME280;58465;51.534;9.934;2022-07-18T07:09:45;100762.03;;;20.72;39.87
70841;BME280;58465;51.534;9.934;2022-07-18T07:12:10;100757.16;;;20.79;39.90
70841;BME280;58465;51.534;9.934;2022-07-18T07:14:36;100761.06;;;20.91;39.66
70841;BME280;58465;51.534;9.934;2022-07-18T07:17:02;100757.19;;;21.12;39.43
70841;BME280;58465;51.534;9.934;2022-07-18T07:19:28;100754.72;;;21.40;39.03
70841;BME280;58465;51.534;9.934;2022-07-18T07:21:53;100748.94;;;21.46;38.54
70841;BME280;58465;51.534;9.934;2022-07-18T07:24:19;100755.53;;;21.74;38.17
70841;BME280;58465;51.534;9.934;2022-07-18T07:26:44;100742.41;;;21.98;37.40
70841;BME280;58465;51.534;9.934;2022-07-18T07:29:09;100749.56;;;22.14;36.81
70841;BME280;58465;51.534;9.934;2022-07-18T07:31:34;100744.19;;;22.13;36.80
70841;BME280;58465;51.534;9.934;2022-07-18T07:34:00;100741.72;;;22.24;36.24
70841;BME280;58465;51.534;9.934;2022-07-18T07:36:25;100741.66;;;22.40;35.68
70841;BME280;58465;51.534;9.934;2022-07-18T07:38:50;100740.44;;;22.45;35.75
70841;BME280;58465;51.534;9.934;2022-07-18T07:41:16;100740.56;;;22.58;35.16
70841;BME280;58465;51.534;9.934;2022-07-18T07:43:41;100748.53;;;22.61;35.70
70841;BME280;58465;51.534;9.934;2022-07-18T07:46:06;100741.22;;;22.91;35.45
70841;BME280;58465;51.534;9.934;2022-07-18T07:48:32;100752.72;;;23.39;34.83
70841;BME280;58465;51.534;9.934;2022-07-18T07:50:57;100740.34;;;23.48;34.21
70841;BME280;58465;51.534;9.934;2022-07-18T07:53:23;100737.38;;;23.79;33.95
70841;BME280;58465;51.534;9.934;2022-07-18T07:55:48;100741.94;;;23.93;32.92
70841;BME280;58465;51.534;9.934;2022-07-18T07:58:13;100736.94;;;23.73;33.75
70841;BME280;58465;51.534;9.934;2022-07-18T08:00:39;100734.91;;;23.62;34.00
70841;BME280;58465;51.534;9.934;2022-07-18T08:03:06;100722.22;;;24.02;33.50
70841;BME280;58465;51.534;9.934;2022-07-18T08:05:34;100722.56;;;24.37;32.79
70841;BME280;58465;51.534;9.934;2022-07-18T08:08:00;100722.94;;;24.58;32.41
70841;BME280;58465;51.534;9.934;2022-07-18T08:10:27;100711.34;;;24.54;31.92
70841;BME280;58465;51.534;9.934;2022-07-18T08:12:53;100706.13;;;24.76;31.84
70841;BME280;58465;51.534;9.934;2022-07-18T08:15:18;100711.28;;;24.94;30.71
70841;BME280;58465;51.534;9.934;2022-07-18T08:17:44;100707.22;;;24.99;29.64
70841;BME280;58465;51.534;9.934;2022-07-18T08:20:09;100722.84;;;25.23;30.15
70841;BME280;58465;51.534;9.934;2022-07-18T08:22:37;100717.78;;;25.42;29.69
70841;BME280;58465;51.534;9.934;2022-07-18T08:25:03;100715.88;;;25.68;29.49
70841;BME280;58465;51.534;9.934;2022-07-18T08:27:28;100718.88;;;25.88;28.97
70841;BME280;58465;51.534;9.934;2022-07-18T08:29:53;100712.88;;;25.83;28.85
70841;BME280;58465;51.534;9.934;2022-07-18T08:32:19;100720.63;;;26.13;28.69
70841;BME280;58465;51.534;9.934;2022-07-18T08:34:44;100721.88;;;26.33;27.97
70841;BME280;58465;51.534;9.934;2022-07-18T08:37:09;100716.44;;;26.20;27.99
70841;BME280;58465;51.534;9.934;2022-07-18T08:39:34;100718.06;;;26.23;27.65
70841;BME280;58465;51.534;9.934;2022-07-18T08:42:01;100706.66;;;26.29;27.44
70841;BME280;58465;51.534;9.934;2022-07-18T08:44:30;100704.72;;;26.18;27.47
70841;BME280;58465;51.534;9.934;2022-07-18T08:46:58;100706.84;;;26.26;27.12
70841;BME280;58465;51.534;9.934;2022-07-18T08:49:25;100708.91;;;26.35;27.22
70841;BME280;58465;51.534;9.934;2022-07-18T08:51:51;100706.50;;;26.66;26.14
70841;BME280;58465;51.534;9.934;2022-07-18T08:54:16;100700.31;;;26.86;26.01
70841;BME280;58465;51.534;9.934;2022-07-18T08:56:42;100715.44;;;26.91;25.31
70841;BME280;58465;51.534;9.934;2022-07-18T08:59:07;100707.53;;;26.76;25.50
70841;BME280;58465;51.534;9.934;2022-07-18T09:01:33;100714.13;;;26.73;25.11
70841;BME280;58465;51.534;9.934;2022-07-18T09:03:58;100708.41;;;26.76;25.54
70841;BME280;58465;51.534;9.934;2022-07-18T09:06:50;100708.53;;;26.86;25.18
70841;BME280;58465;51.534;9.934;2022-07-18T09:09:18;100711.69;;;26.46;25.09
70841;BME280;58465;51.534;9.934;2022-07-18T09:11:54;100699.97;;;26.33;25.95
70841;BME280;58465;51.534;9.934;2022-07-18T09:14:30;100700.81;;;26.80;25.15
70841;BME280;58465;51.534;9.934;2022-07-18T09:17:03;100699.25;;;27.11;25.10
70841;BME280;58465;51.534;9.934;2022-07-18T09:19:29;100690.28;;;27.31;24.51
70841;BME280;58465;51.534;9.934;2022-07-18T09:22:10;100697.59;;;27.53;24.09
70841;BME280;58465;51.534;9.934;2022-07-18T09:24:58;100688.28;;;27.55;23.70
70841;BME280;58465;51.534;9.934;2022-07-18T09:28:01;100679.91;;;27.68;23.99
70841;BME280;58465;51.534;9.934;2022-07-18T09:30:30;100686.00;;;27.72;23.50
70841;BME280;58465;51.534;9.934;2022-07-18T09:35:41;100684.22;;;27.82;23.62
70841;BME280;58465;51.534;9.934;2022-07-18T09:38:09;100683.66;;;27.99;23.88
70841;BME280;58465;51.534;9.934;2022-07-18T09:40:39;100679.88;;;28.22;23.28
70841;BME280;58465;51.534;9.934;2022-07-18T09:43:10;100683.63;;;28.10;23.56
70841;BME280;58465;51.534;9.934;2022-07-18T09:45:41;100683.38;;;28.13;23.44
70841;BME280;58465;51.534;9.934;2022-07-18T09:48:09;100679.13;;;28.09;23.75
70841;BME280;58465;51.534;9.934;2022-07-18T09:50:37;100670.69;;;28.01;23.78
70841;BME280;58465;51.534;9.934;2022-07-18T09:53:13;100676.94;;;28.03;23.90
70841;BME280;58465;51.534;9.934;2022-07-18T09:55:44;100678.63;;;28.15;23.78
70841;BME280;58465;51.534;9.934;2022-07-18T09:58:10;100667.13;;;28.21;24.00
70841;BME280;58465;51.534;9.934;2022-07-18T10:00:38;100662.47;;;28.33;23.64
70841;BME280;58465;51.534;9.934;2022-07-18T10:03:05;100663.41;;;28.11;23.95
70841;BME280;58465;51.534;9.934;2022-07-18T10:05:33;100666.88;;;28.24;23.63
70841;BME280;58465;51.534;9.934;2022-07-18T10:08:00;100663.59;;;28.30;23.47
70841;BME280;58465;51.534;9.934;2022-07-18T10:10:28;100663.41;;;28.43;23.48
70841;BME280;58465;51.534;9.934;2022-07-18T10:12:55;100664.31;;;28.74;22.99
70841;BME280;58465;51.534;9.934;2022-07-18T10:15:23;100664.50;;;29.03;22.68
70841;BME280;58465;51.534;9.934;2022-07-18T10:17:50;100658.47;;;29.09;21.64
70841;BME280;58465;51.534;9.934;2022-07-18T10:20:16;100664.25;;;29.36;21.57
70841;BME280;58465;51.534;9.934;2022-07-18T10:22:42;100657.47;;;29.40;21.81
70841;BME280;58465;51.534;9.934;2022-07-18T10:25:12;100668.06;;;29.55;21.65
70841;BME280;58465;51.534;9.934;2022-07-18T10:27:53;100664.28;;;29.46;21.27
70841;BME280;58465;51.534;9.934;2022-07-18T10:30:40;100661.31;;;28.98;21.77
70841;BME280;58465;51.534;9.934;2022-07-18T10:33:41;100666.06;;;28.96;22.05
70841;BME280;58465;51.534;9.934;2022-07-18T10:36:13;100656.06;;;29.25;22.02
70841;BME280;58465;51.534;9.934;2022-07-18T10:57:37;100633.34;;;30.11;20.84
70841;BME280;58465;51.534;9.934;2022-07-18T11:02:40;100626.41;;;29.98;21.07
70841;BME280;58465;51.534;9.934;2022-07-18T11:18:33;100616.78;;;30.59;20.09
70841;BME280;58465;51.534;9.934;2022-07-18T11:21:20;100612.72;;;31.10;19.41
70841;BME280;58465;51.534;9.934;2022-07-18T11:23:48;100615.63;;;31.36;19.00
70841;BME280;58465;51.534;9.934;2022-07-18T11:26:17;100604.28;;;31.39;18.71
70841;BME280;58465;51.534;9.934;2022-07-18T11:28:45;100608.34;;;31.62;18.78
70841;BME280;58465;51.534;9.934;2022-07-18T11:31:12;100611.16;;;31.80;18.69
70841;BME280;58465;51.534;9.934;2022-07-18T11:33:44;100598.75;;;31.84;18.41
70841;BME280;58465;51.534;9.934;2022-07-18T11:36:16;100604.25;;;32.37;17.78
70841;BME280;58465;51.534;9.934;2022-07-18T11:39:00;100598.69;;;32.81;17.32
70841;BME280;58465;51.534;9.934;2022-07-18T11:41:26;100596.13;;;33.22;16.94
70841;BME280;58465;51.534;9.934;2022-07-18T11:43:54;100586.72;;;33.06;16.83
70841;BME280;58465;51.534;9.934;2022-07-18T11:46:22;100584.06;;;33.23;17.05
70841;BME280;58465;51.534;9.934;2022-07-18T11:48:59;100573.00;;;33.31;16.60
70841;BME280;58465;51.534;9.934;2022-07-18T11:51:38;100580.25;;;34.22;16.16
70841;BME280;58465;51.534;9.934;2022-07-18T11:54:03;100577.44;;;34.63;15.42
70841;BME280;58465;51.534;9.934;2022-07-18T11:56:29;100570.41;;;34.36;15.82
70841;BME280;58465;51.534;9.934;2022-07-18T11:58:54;100569.88;;;34.41;15.97
70841;BME280;58465;51.534;9.934;2022-07-18T12:01:21;100568.50;;;35.00;15.17
70841;BME280;58465;51.534;9.934;2022-07-18T12:03:48;100556.09;;;34.88;14.70
70841;BME280;58465;51.534;9.934;2022-07-18T12:06:22;100563.75;;;34.61;14.81
70841;BME280;58465;51.534;9.934;2022-07-18T12:08:58;100555.78;;;34.67;15.00
70841;BME280;58465;51.534;9.934;2022-07-18T12:21:50;100555.69;;;35.92;14.28
70841;BME280;58465;51.534;9.934;2022-07-18T12:24:37;100552.28;;;36.27;13.99
70841;BME280;58465;51.534;9.934;2022-07-18T12:32:51;100541.41;;;37.50;12.79
70841;BME280;58465;51.534;9.934;2022-07-18T12:35:20;100527.34;;;37.37;13.17
70841;BME280;58465;51.534;9.934;2022-07-18T12:38:00;100527.72;;;37.91;12.47
70841;BME280;58465;51.534;9.934;2022-07-18T12:43:08;100530.00;;;39.94;11.11
70841;BME280;58465;51.534;9.934;2022-07-18T12:45:34;100525.03;;;39.83;11.34
70841;BME280;58465;51.534;9.934;2022-07-18T12:48:00;100520.31;;;40.23;11.41
70841;BME280;58465;51.534;9.934;2022-07-18T12:50:25;100521.38;;;40.62;10.96
70841;BME280;58465;51.534;9.934;2022-07-18T12:52:51;100516.03;;;41.25;10.68
70841;BME280;58465;51.534;9.934;2022-07-18T12:55:16;100507.78;;;41.36;10.31
70841;BME280;58465;51.534;9.934;2022-07-18T12:57:42;100512.63;;;41.16;10.56
70841;BME280;58465;51.534;9.934;2022-07-18T13:00:08;100506.97;;;40.65;10.95
70841;BME280;58465;51.534;9.934;2022-07-18T13:02:34;100507.16;;;40.83;10.60
70841;BME280;58465;51.534;9.934;2022-07-18T13:04:59;100499.22;;;40.21;11.19
70841;BME280;58465;51.534;9.934;2022-07-18T13:07:24;100506.97;;;40.12;11.33
70841;BME280;58465;51.534;9.934;2022-07-18T13:09:50;100499.88;;;39.83;11.70
70841;BME280;58465;51.534;9.934;2022-07-18T13:12:15;100507.22;;;39.97;11.49
70841;BME280;58465;51.534;9.934;2022-07-18T13:14:41;100504.09;;;40.91;10.92
70841;BME280;58465;51.534;9.934;2022-07-18T13:17:06;100489.94;;;41.24;10.62
70841;BME280;58465;51.534;9.934;2022-07-18T13:19:31;100492.09;;;40.71;10.92
70841;BME280;58465;51.534;9.934;2022-07-18T13:21:58;100490.56;;;40.68;10.45
70841;BME280;58465;51.534;9.934;2022-07-18T13:24:24;100483.16;;;41.45;10.35
70841;BME280;58465;51.534;9.934;2022-07-18T13:26:49;100487.28;;;41.42;10.18
70841;BME280;58465;51.534;9.934;2022-07-18T13:29:14;100482.50;;;42.55;9.34
70841;BME280;58465;51.534;9.934;2022-07-18T13:31:40;100472.44;;;43.21;8.91
70841;BME280;58465;51.534;9.934;2022-07-18T13:34:06;100487.09;;;43.71;8.51
70841;BME280;58465;51.534;9.934;2022-07-18T13:36:32;100484.13;;;44.66;8.02
70841;BME280;58465;51.534;9.934;2022-07-18T13:38:57;100476.94;;;43.70;8.28
70841;BME280;58465;51.534;9.934;2022-07-18T13:41:23;100478.22;;;43.56;8.64
70841;BME280;58465;51.534;9.934;2022-07-18T13:43:48;100484.38;;;43.16;8.63
70841;BME280;58465;51.534;9.934;2022-07-18T13:46:14;100472.19;;;42.06;9.41